createdAt,value
2019-06-08T00:01:30.002Z,100735.19
2019-06-08T00:03:59.301Z,100728.58
2019-06-08T00:06:28.462Z,100739.92
2019-06-08T00:08:57.687Z,100735.99
2019-06-08T00:11:26.896Z,100737.11
2019-06-08T00:13:56.106Z,100734.53
2019-06-08T00:16:25.365Z,100739.72
2019-06-08T00:18:54.662Z,100739.88
2019-06-08T00:21:24.219Z,100736.55
2019-06-08T00:23:53.479Z,100734.50
2019-06-08T00:26:22.677Z,100728.95
2019-06-08T00:28:51.894Z,100728.72
2019-06-08T00:31:21.694Z,100736.11
2019-06-08T00:33:50.950Z,100728.14
2019-06-08T00:36:20.890Z,100738.63
2019-06-08T00:38:50.593Z,100734.69
2019-06-08T00:41:20.699Z,100739.25
2019-06-08T00:43:51.181Z,100738.52
2019-06-08T00:46:21.478Z,100747.67
2019-06-08T00:48:50.615Z,100734.97
2019-06-08T00:51:20.982Z,100738.06
2019-06-08T00:53:50.272Z,100752.76
2019-06-08T00:56:19.751Z,100748.56
2019-06-08T00:58:48.911Z,100752.50
2019-06-08T01:01:22.047Z,100752.91
2019-06-08T01:03:49.267Z,100754.98
2019-06-08T01:06:18.821Z,100753.13
2019-06-08T01:08:47.410Z,100758.19
2019-06-08T01:11:16.526Z,100744.88
2019-06-08T01:13:45.682Z,100749.44
2019-06-08T01:16:15.002Z,100751.53
2019-06-08T01:18:44.282Z,100761.77
2019-06-08T01:21:13.547Z,100765.84
2019-06-08T01:23:42.726Z,100759.79
2019-06-08T01:26:12.830Z,100766.08
2019-06-08T01:28:42.199Z,100763.73
2019-06-08T01:31:11.349Z,100758.18
2019-06-08T01:33:40.538Z,100770.89
2019-06-08T01:36:09.810Z,100762.87
2019-06-08T01:38:39.106Z,100759.42
2019-06-08T01:41:08.284Z,100759.66
2019-06-08T01:43:37.445Z,100763.73
2019-06-08T01:46:06.648Z,100765.46
2019-06-08T01:48:35.935Z,100766.95
2019-06-08T01:51:06.795Z,100761.15
2019-06-08T01:53:35.960Z,100742.27
2019-06-08T01:56:05.349Z,100750.55
2019-06-08T01:58:34.654Z,100755.97
2019-06-08T02:01:03.769Z,100749.68
2019-06-08T02:03:34.673Z,100753.14
2019-06-08T02:06:04.326Z,100754.87
2019-06-08T02:08:34.702Z,100748.45
2019-06-08T02:11:04.323Z,100754.99
2019-06-08T02:13:33.177Z,100748.33
2019-06-08T02:16:02.394Z,100749.20
2019-06-08T02:18:41.845Z,100752.41
2019-06-08T02:21:02.461Z,100751.05
2019-06-08T02:23:33.028Z,100751.05
2019-06-08T02:26:02.277Z,100760.55
2019-06-08T02:28:31.898Z,100748.95
2019-06-08T02:31:01.161Z,100754.75
2019-06-08T02:33:30.813Z,100751.67
2019-06-08T02:36:01.403Z,100752.51
2019-06-08T02:38:32.239Z,100751.52
2019-06-08T02:41:01.534Z,100758.31
2019-06-08T02:43:30.919Z,100754.36
2019-06-08T02:46:00.134Z,100761.39
2019-06-08T02:48:30.023Z,100764.11
2019-06-08T02:51:00.531Z,100761.76
2019-06-08T02:53:30.144Z,100765.95
2019-06-08T02:56:00.294Z,100760.03
2019-06-08T02:58:31.113Z,100768.55
2019-06-08T03:01:00.501Z,100776.69
2019-06-08T03:03:31.720Z,100768.17
2019-06-08T03:06:03.278Z,100770.16
2019-06-08T03:08:39.103Z,100774.59
2019-06-08T03:11:08.098Z,100774.47
2019-06-08T03:13:39.494Z,100773.97
2019-06-08T03:16:08.184Z,100777.19
2019-06-08T03:18:38.284Z,100801.24
2019-06-08T03:21:08.461Z,100785.70
2019-06-08T03:23:38.753Z,100784.72
2019-06-08T03:26:08.623Z,100792.13
2019-06-08T03:28:39.960Z,100792.13
2019-06-08T03:31:08.810Z,100802.12
2019-06-08T03:33:45.771Z,100798.53
2019-06-08T03:36:09.186Z,100796.81
2019-06-08T03:38:40.206Z,100800.27
2019-06-08T03:41:09.648Z,100794.97
2019-06-08T03:43:40.825Z,100802.73
2019-06-08T03:46:11.021Z,100814.45
2019-06-08T03:48:40.133Z,100809.03
2019-06-08T03:51:10.349Z,100816.39
2019-06-08T03:53:40.529Z,100817.38
2019-06-08T03:56:10.864Z,100820.96
2019-06-08T03:58:40.608Z,100828.48
2019-06-08T04:01:11.290Z,100811.83
2019-06-08T04:03:40.361Z,100805.66
2019-06-08T04:06:10.592Z,100810.23
2019-06-08T04:08:40.915Z,100804.55
2019-06-08T04:11:10.686Z,100805.54
2019-06-08T04:13:42.006Z,100804.06
2019-06-08T04:16:11.371Z,100803.69
2019-06-08T04:18:42.017Z,100813.92
2019-06-08T04:21:11.281Z,100804.42
2019-06-08T04:23:42.624Z,100819.72
2019-06-08T04:26:11.762Z,100817.63
2019-06-08T04:28:42.473Z,100814.91
2019-06-08T04:31:11.798Z,100808.50
2019-06-08T04:33:42.082Z,100813.55
2019-06-08T04:36:11.303Z,100827.48
2019-06-08T04:38:41.312Z,100824.78
2019-06-08T04:41:10.931Z,100828.47
2019-06-08T04:43:42.834Z,100840.92
2019-06-08T04:46:11.981Z,100845.20
2019-06-08T04:48:42.858Z,100843.48
2019-06-08T04:51:13.216Z,100841.91
2019-06-08T04:53:43.187Z,100849.65
2019-06-08T04:56:13.437Z,100847.17
2019-06-08T04:58:45.989Z,100844.95
2019-06-08T05:01:13.537Z,100844.09
2019-06-08T05:03:43.356Z,100856.30
2019-06-08T05:06:13.151Z,100856.54
2019-06-08T05:08:43.151Z,100854.81
2019-06-08T05:11:12.498Z,100850.37
2019-06-08T05:13:43.191Z,100853.95
2019-06-08T05:16:12.663Z,100869.12
2019-06-08T05:18:43.110Z,100867.02
2019-06-08T05:21:12.406Z,100858.51
2019-06-08T05:23:41.607Z,100860.23
2019-06-08T05:26:10.775Z,100878.61
2019-06-08T05:28:41.053Z,100877.25
2019-06-08T05:31:10.537Z,100884.28
2019-06-08T05:33:39.710Z,100889.33
2019-06-08T05:36:08.929Z,100906.59
2019-06-08T05:38:39.393Z,100911.27
2019-06-08T05:41:08.714Z,100903.64
2019-06-08T05:43:37.887Z,100912.40
2019-06-08T05:46:07.081Z,100905.24
2019-06-08T05:48:36.341Z,100907.59
2019-06-08T05:51:05.499Z,100910.30
2019-06-08T05:53:35.474Z,100915.11
2019-06-08T05:56:04.805Z,100918.56
2019-06-08T05:58:34.004Z,100924.66
2019-06-08T06:01:03.179Z,100921.77
2019-06-08T06:03:32.342Z,100932.25
2019-06-08T06:06:01.552Z,100929.77
2019-06-08T06:08:30.766Z,100935.30
2019-06-08T06:10:59.987Z,100931.91
2019-06-08T06:13:29.150Z,100960.85
2019-06-08T06:15:58.427Z,100957.13
2019-06-08T06:18:27.605Z,100964.31
2019-06-08T06:21:09.863Z,100995.58
2019-06-08T06:23:27.744Z,100978.00
2019-06-08T06:25:56.995Z,100983.24
2019-06-08T06:28:26.168Z,100970.56
2019-06-08T06:30:55.470Z,100979.03
2019-06-08T06:33:24.607Z,100980.91
2019-06-08T06:35:53.840Z,100982.07
2019-06-08T06:38:23.038Z,100986.89
2019-06-08T06:40:52.657Z,100971.41
2019-06-08T06:43:22.840Z,100975.50
2019-06-08T06:45:52.295Z,100992.03
2019-06-08T06:48:23.547Z,100993.39
2019-06-08T06:50:52.631Z,101001.17
2019-06-08T06:53:21.840Z,100983.84
2019-06-08T06:55:51.067Z,101007.38
2019-06-08T06:58:20.334Z,101008.77
2019-06-08T07:00:49.551Z,101011.62
2019-06-08T07:03:18.780Z,101014.71
2019-06-08T07:05:48.013Z,101016.33
2019-06-08T07:08:17.258Z,101017.19
2019-06-08T07:10:46.639Z,101004.50
2019-06-08T07:13:16.812Z,101013.84
2019-06-08T07:15:47.311Z,101026.31
2019-06-08T07:18:17.133Z,101031.13
2019-06-08T07:20:48.128Z,101037.91
2019-06-08T07:23:17.326Z,101038.89
2019-06-08T07:25:46.568Z,101050.56
2019-06-08T07:28:15.748Z,101052.27
2019-06-08T07:30:45.011Z,101044.44
2019-06-08T07:33:14.171Z,101066.35
2019-06-08T07:35:43.350Z,101068.31
2019-06-08T07:38:12.562Z,101058.33
2019-06-08T07:40:41.899Z,101061.64
2019-06-08T07:43:13.101Z,101060.34
2019-06-08T07:45:42.746Z,101073.02
2019-06-08T07:48:11.913Z,101079.58
2019-06-08T07:50:41.148Z,101087.83
2019-06-08T07:53:10.331Z,101085.09
2019-06-08T07:55:39.566Z,101097.83
2019-06-08T07:58:08.882Z,101100.77
2019-06-08T08:00:38.061Z,101111.35
2019-06-08T08:03:10.244Z,101100.28
2019-06-08T08:05:39.878Z,101115.80
2019-06-08T08:08:08.349Z,101117.83
2019-06-08T08:10:37.491Z,101119.48
2019-06-08T08:13:06.726Z,101115.75
2019-06-08T08:15:36.040Z,101131.98
2019-06-08T08:18:05.606Z,101124.94
2019-06-08T08:20:34.775Z,101134.09
2019-06-08T08:23:06.205Z,101138.05
2019-06-08T08:25:34.929Z,101140.11
2019-06-08T08:28:04.093Z,101155.91
2019-06-08T08:30:33.280Z,101145.32
2019-06-08T08:33:03.366Z,101142.67
2019-06-08T08:35:32.768Z,101146.25
2019-06-08T08:38:04.411Z,101162.77
2019-06-08T08:40:32.858Z,101155.23
2019-06-08T08:43:02.027Z,101143.64
2019-06-08T08:45:31.283Z,101163.97
2019-06-08T08:48:21.170Z,101165.54
2019-06-08T08:50:31.367Z,101166.70
2019-06-08T08:53:02.225Z,101170.60
2019-06-08T08:55:31.600Z,101182.84
2019-06-08T08:58:02.167Z,101178.83
2019-06-08T09:00:31.447Z,101181.92
2019-06-08T09:03:21.964Z,101185.02
2019-06-08T09:05:31.774Z,101175.73
2019-06-08T09:08:02.609Z,101194.28
2019-06-08T09:10:31.823Z,101186.16
2019-06-08T09:13:04.211Z,101179.80
2019-06-08T09:15:32.236Z,101185.22
2019-06-08T09:18:03.705Z,101191.50
2019-06-08T09:20:32.353Z,101197.68
2019-06-08T09:23:11.728Z,101193.23
2019-06-08T09:25:32.481Z,101187.33
2019-06-08T09:28:04.659Z,101194.48
2019-06-08T09:30:32.646Z,101207.75
2019-06-08T09:33:02.906Z,101214.04
2019-06-08T09:35:32.696Z,101232.20
2019-06-08T09:38:04.796Z,101227.27
2019-06-08T09:40:32.817Z,101223.31
2019-06-08T09:43:09.178Z,101227.97
2019-06-08T09:45:34.942Z,101219.63
2019-06-08T09:48:05.766Z,101228.55
2019-06-08T09:50:38.453Z,101234.52
2019-06-08T09:53:23.196Z,101242.44
2019-06-08T09:55:41.296Z,101233.83
2019-06-08T09:58:11.720Z,101228.58
2019-06-08T10:00:40.305Z,101244.52
2019-06-08T10:03:09.794Z,101243.36
2019-06-08T10:05:39.175Z,101250.52
2019-06-08T10:08:09.541Z,101251.66
2019-06-08T10:10:38.917Z,101257.24
2019-06-08T10:13:09.661Z,101254.36
2019-06-08T10:15:39.001Z,101259.68
2019-06-08T10:18:08.585Z,101259.57
2019-06-08T10:20:38.618Z,101272.73
2019-06-08T10:23:24.402Z,101259.57
2019-06-08T10:25:38.785Z,101245.98
2019-06-08T10:28:14.056Z,101260.94
2019-06-08T10:30:39.562Z,101263.72
2019-06-08T10:33:10.080Z,101268.31
2019-06-08T10:35:40.427Z,101258.88
2019-06-08T10:38:12.002Z,101264.34
2019-06-08T10:41:04.833Z,101272.23
2019-06-08T10:43:29.464Z,101275.70
2019-06-08T10:46:03.070Z,101295.98
2019-06-08T10:48:30.707Z,101274.82
2019-06-08T10:51:03.404Z,101285.95
2019-06-08T10:53:45.183Z,101279.06
2019-06-08T10:56:03.446Z,101293.31
2019-06-08T10:58:33.675Z,101275.77
2019-06-08T11:01:10.205Z,101286.06
2019-06-08T11:03:38.680Z,101309.59
2019-06-08T11:06:11.322Z,101300.20
2019-06-08T11:08:39.010Z,101300.12
2019-06-08T11:11:11.742Z,101310.00
2019-06-08T11:13:40.112Z,101313.30
2019-06-08T11:16:12.719Z,101319.94
2019-06-08T11:18:41.756Z,101317.80
2019-06-08T11:21:12.844Z,101318.23
2019-06-08T11:23:42.853Z,101327.84
2019-06-08T11:26:19.843Z,101341.02
2019-06-08T11:28:43.283Z,101342.59
2019-06-08T11:31:15.886Z,101378.42
2019-06-08T11:33:45.276Z,101342.73
2019-06-08T11:36:15.096Z,101355.30
2019-06-08T11:38:44.243Z,101348.59
2019-06-08T11:41:13.852Z,101358.28
2019-06-08T11:43:42.564Z,101362.73
2019-06-08T11:46:11.821Z,101350.80
2019-06-08T11:48:41.690Z,101355.13
2019-06-08T11:51:13.044Z,101355.87
2019-06-08T11:53:42.247Z,101365.88
2019-06-08T11:56:13.403Z,101358.83
2019-06-08T11:58:43.578Z,101355.13
2019-06-08T12:01:14.739Z,101362.16
2019-06-08T12:03:43.620Z,101358.52
2019-06-08T12:06:14.392Z,101363.72
2019-06-08T12:08:43.773Z,101390.30
2019-06-08T12:11:18.765Z,101385.55
2019-06-08T12:13:43.916Z,101378.05
2019-06-08T12:16:15.699Z,101395.46
2019-06-08T12:18:44.072Z,101397.19
2019-06-08T12:21:14.568Z,101395.16
2019-06-08T12:23:43.851Z,101428.56
2019-06-08T12:26:14.385Z,101415.61
2019-06-08T12:28:44.128Z,101411.86
2019-06-08T12:34:15.529Z,101438.32
2019-06-08T12:36:45.211Z,101431.08
2019-06-08T12:39:14.366Z,101441.94
2019-06-08T12:41:43.768Z,101455.80
2019-06-08T12:44:15.552Z,101453.44
2019-06-08T12:46:44.921Z,101450.91
2019-06-08T12:49:14.676Z,101466.80
2019-06-08T12:51:44.919Z,101468.95
2019-06-08T12:54:14.467Z,101479.06
2019-06-08T12:56:43.627Z,101488.44
2019-06-08T12:59:16.454Z,101475.94
2019-06-08T13:01:44.135Z,101483.52
2019-06-08T13:04:13.811Z,101485.58
2019-06-08T13:06:43.052Z,101470.11
2019-06-08T13:09:13.458Z,101488.23
2019-06-08T13:11:43.250Z,101497.33
2019-06-08T13:14:12.976Z,101501.45
2019-06-08T13:16:42.535Z,101501.73
2019-06-08T13:19:13.112Z,101505.98
2019-06-08T13:21:42.654Z,101507.34
2019-06-08T13:24:33.312Z,101524.53
2019-06-08T13:27:02.869Z,101526.31
2019-06-08T13:29:32.064Z,101525.67
2019-06-08T13:32:01.538Z,101530.45
2019-06-08T13:34:30.942Z,101536.59
2019-06-08T13:37:00.189Z,101549.31
2019-06-08T13:39:29.378Z,101529.98
2019-06-08T13:41:58.621Z,101536.09
2019-06-08T13:44:28.092Z,101549.19
2019-06-08T13:46:57.797Z,101540.52
2019-06-08T13:49:30.565Z,101542.41
2019-06-08T13:51:58.500Z,101551.72
2019-06-08T13:54:31.221Z,101563.98
2019-06-08T13:56:59.174Z,101561.16
2019-06-08T13:59:30.799Z,101562.80
2019-06-08T14:01:59.668Z,101568.02
2019-06-08T14:04:29.059Z,101562.52
2019-06-08T14:06:58.569Z,101551.02
2019-06-08T14:09:31.522Z,101569.69
2019-06-08T14:11:59.087Z,101591.08
2019-06-08T14:14:29.307Z,101574.33
2019-06-08T14:16:59.000Z,101581.63
2019-06-08T14:19:48.323Z,101571.95
2019-06-08T14:22:20.094Z,101574.34
2019-06-08T14:24:48.021Z,101557.61
2019-06-08T14:27:17.205Z,101547.23
2019-06-08T14:29:48.480Z,101569.23
2019-06-08T14:32:19.106Z,101567.28
2019-06-08T14:34:50.189Z,101573.83
2019-06-08T14:37:20.027Z,101601.94
2019-06-08T14:39:48.782Z,101614.78
2019-06-08T14:42:23.526Z,101608.38
2019-06-08T14:44:48.985Z,101580.77
2019-06-08T14:47:18.747Z,101599.84
2019-06-08T14:49:49.471Z,101585.86
2019-06-08T14:52:20.442Z,101572.44
2019-06-08T14:54:51.282Z,101574.45
2019-06-08T14:57:23.291Z,101577.27
2019-06-08T14:59:56.039Z,101585.63
2019-06-08T15:02:26.168Z,101585.67
2019-06-08T15:04:56.518Z,101598.47
2019-06-08T15:07:29.145Z,101611.08
2019-06-08T15:09:58.180Z,101598.03
2019-06-08T15:12:28.558Z,101604.49
2019-06-08T15:14:59.056Z,101620.70
2019-06-08T15:17:30.841Z,101640.98
2019-06-08T15:19:59.307Z,101645.55
2019-06-08T15:22:30.043Z,101647.47
2019-06-08T15:24:59.467Z,101617.47
2019-06-08T15:27:31.985Z,101610.14
2019-06-08T15:30:00.908Z,101638.88
2019-06-08T15:32:33.662Z,101619.81
2019-06-08T15:35:01.047Z,101605.86
2019-06-08T15:37:33.364Z,101609.80
2019-06-08T15:40:03.023Z,101608.97
2019-06-08T15:42:32.484Z,101613.11
2019-06-08T15:45:02.683Z,101620.61
2019-06-08T15:47:32.476Z,101638.73
2019-06-08T15:50:01.615Z,101636.59
2019-06-08T15:52:33.003Z,101644.13
2019-06-08T15:55:02.210Z,101666.12
2019-06-08T15:57:37.557Z,101657.32
2019-06-08T16:00:02.530Z,101658.64
2019-06-08T16:02:31.782Z,101650.66
2019-06-08T16:05:00.969Z,101634.47
2019-06-08T16:07:31.296Z,101639.87
2019-06-08T16:10:01.085Z,101634.18
2019-06-08T16:12:30.664Z,101628.04
2019-06-08T16:14:59.081Z,101626.97
2019-06-08T16:17:29.250Z,101628.59
2019-06-08T16:19:58.465Z,101643.63
2019-06-08T16:22:27.747Z,101622.29
2019-06-08T16:24:56.997Z,101631.27
2019-06-08T16:27:26.229Z,101638.09
2019-06-08T16:29:55.411Z,101647.27
2019-06-08T16:32:24.633Z,101645.64
2019-06-08T16:34:53.801Z,101644.79
2019-06-08T16:37:22.995Z,101660.03
2019-06-08T16:39:52.232Z,101647.86
2019-06-08T16:42:21.400Z,101655.27
2019-06-08T16:44:50.629Z,101652.47
2019-06-08T16:47:19.816Z,101662.67
2019-06-08T16:49:48.982Z,101666.67
2019-06-08T16:52:18.370Z,101664.36
2019-06-08T16:54:47.557Z,101666.54
2019-06-08T16:57:16.816Z,101671.40
2019-06-08T16:59:46.004Z,101672.70
2019-06-08T17:02:16.960Z,101682.38
2019-06-08T17:04:46.174Z,101685.73
2019-06-08T17:07:15.346Z,101687.97
2019-06-08T17:09:45.431Z,101683.14
2019-06-08T17:12:14.653Z,101693.54
2019-06-08T17:14:43.854Z,101687.33
2019-06-08T17:17:13.089Z,101691.58
2019-06-08T17:19:42.551Z,101694.05
2019-06-08T17:22:11.836Z,101690.84
2019-06-08T17:24:41.058Z,101696.17
2019-06-08T17:27:26.029Z,101702.86
2019-06-08T17:29:41.220Z,101708.68
2019-06-08T17:32:10.417Z,101707.46
2019-06-08T17:34:40.226Z,101713.78
2019-06-08T17:37:09.728Z,101718.26
2019-06-08T17:39:40.040Z,101711.44
2019-06-08T17:42:09.309Z,101713.77
2019-06-08T17:44:38.594Z,101735.43
2019-06-08T17:47:07.848Z,101729.48
2019-06-08T17:49:37.045Z,101730.80
2019-06-08T17:52:06.283Z,101725.52
2019-06-08T17:54:36.690Z,101730.03
2019-06-08T17:57:05.907Z,101734.74
2019-06-08T17:59:35.362Z,101738.19
2019-06-08T18:02:07.270Z,101744.17
2019-06-08T18:04:38.095Z,101735.75
2019-06-08T18:07:07.460Z,101745.11
2019-06-08T18:09:39.257Z,101750.73
2019-06-08T18:12:08.810Z,101748.96
2019-06-08T18:14:40.462Z,101751.72
2019-06-08T18:17:08.935Z,101758.38
2019-06-08T18:19:41.893Z,101757.31
2019-06-08T18:22:15.292Z,101757.11
2019-06-08T18:24:41.901Z,101778.61
2019-06-08T18:27:11.005Z,101765.56
2019-06-08T18:29:42.395Z,101773.22
2019-06-08T18:32:11.572Z,101775.33
2019-06-08T18:34:43.256Z,101775.10
2019-06-08T18:37:13.309Z,101782.59
2019-06-08T18:39:44.406Z,101790.43
2019-06-08T18:42:13.848Z,101787.78
2019-06-08T18:44:44.483Z,101787.25
2019-06-08T18:47:13.915Z,101794.36
2019-06-08T18:49:44.196Z,101791.59
2019-06-08T18:52:13.689Z,101796.28
2019-06-08T18:54:44.182Z,101804.67
2019-06-08T18:57:13.545Z,101801.41
2019-06-08T18:59:46.599Z,101791.73
2019-06-08T19:02:13.850Z,101804.16
2019-06-08T19:04:43.145Z,101802.75
2019-06-08T19:07:12.467Z,101808.25
2019-06-08T19:09:43.735Z,101818.97
2019-06-08T19:12:12.980Z,101820.59
2019-06-08T19:14:43.532Z,101828.42
2019-06-08T19:17:12.844Z,101836.31
2019-06-08T19:19:45.803Z,101831.57
2019-06-08T19:22:13.534Z,101835.94
2019-06-08T19:24:44.827Z,101843.93
2019-06-08T19:27:13.886Z,101844.63
2019-06-08T19:29:44.184Z,101846.80
2019-06-08T19:32:14.381Z,101848.48
2019-06-08T19:34:45.151Z,101847.40
2019-06-08T19:37:14.533Z,101858.48
2019-06-08T19:39:45.954Z,101861.03
2019-06-08T19:42:14.911Z,101869.98
2019-06-08T19:44:54.168Z,101874.86
2019-06-08T19:47:17.261Z,101876.22
2019-06-08T19:49:47.751Z,101882.83
2019-06-08T19:52:18.308Z,101883.63
2019-06-08T19:54:52.485Z,101892.19
2019-06-08T19:57:18.550Z,101895.76
2019-06-08T19:59:47.828Z,101905.19
2019-06-08T20:02:17.736Z,101903.36
2019-06-08T20:04:46.964Z,101904.56
2019-06-08T20:07:17.494Z,101903.98
2019-06-08T20:09:48.179Z,101908.07
2019-06-08T20:12:18.616Z,101909.30
2019-06-08T20:14:49.387Z,101915.42
2019-06-08T20:17:19.487Z,101922.59
2019-06-08T20:19:49.493Z,101931.33
2019-06-08T20:22:18.948Z,101934.04
2019-06-08T20:24:52.076Z,101940.34
2019-06-08T20:27:19.303Z,101945.67
2019-06-08T20:29:50.926Z,101949.16
2019-06-08T20:32:19.635Z,101950.91
2019-06-08T20:34:50.533Z,101956.34
2019-06-08T20:37:19.740Z,101965.45
2019-06-08T20:40:04.442Z,101968.27
2019-06-08T20:42:19.922Z,101963.52
2019-06-08T20:44:51.580Z,101972.23
2019-06-08T20:47:20.687Z,101967.00
2019-06-08T20:49:51.850Z,101977.14
2019-06-08T20:52:21.243Z,101980.14
2019-06-08T20:54:50.874Z,101972.77
2019-06-08T20:57:21.495Z,101982.46
2019-06-08T20:59:53.460Z,101984.01
2019-06-08T21:02:21.669Z,101990.56
2019-06-08T21:04:54.074Z,101993.07
2019-06-08T21:07:22.157Z,101998.87
2019-06-08T21:09:53.451Z,102005.54
2019-06-08T21:12:22.968Z,102010.66
2019-06-08T21:14:52.699Z,102004.03
2019-06-08T21:17:22.362Z,102008.77
2019-06-08T21:19:53.023Z,102002.38
2019-06-08T21:22:22.443Z,102007.89
2019-06-08T21:24:53.691Z,102012.54
2019-06-08T21:27:23.269Z,102010.01
2019-06-08T21:29:59.759Z,102012.03
2019-06-08T21:32:23.942Z,102010.95
2019-06-08T21:34:55.277Z,102012.63
2019-06-08T21:37:24.920Z,102015.52
2019-06-08T21:39:56.978Z,102015.70
2019-06-08T21:42:27.661Z,102019.08
2019-06-08T21:44:59.933Z,102025.95
2019-06-08T21:47:28.477Z,102026.09
2019-06-08T21:50:00.340Z,102019.89
2019-06-08T21:52:29.430Z,102022.83
2019-06-08T21:55:00.696Z,102026.59
2019-06-08T21:57:30.224Z,102029.09
2019-06-08T22:00:21.907Z,102026.25
2019-06-08T22:02:32.605Z,102030.01
2019-06-08T22:05:04.858Z,102027.05
2019-06-08T22:07:37.737Z,102028.58
2019-06-08T22:10:09.798Z,102026.44
2019-06-08T22:12:40.401Z,102029.88
2019-06-08T22:15:11.020Z,102032.77
2019-06-08T22:17:41.203Z,102037.88
2019-06-08T22:20:10.563Z,102032.94
2019-06-08T22:22:40.088Z,102048.23
2019-06-08T22:25:09.524Z,102052.69
2019-06-08T22:27:39.352Z,102057.55
2019-06-08T22:30:15.547Z,102051.56
2019-06-08T22:32:40.755Z,102062.23
2019-06-08T22:35:11.163Z,102042.30
2019-06-08T22:37:41.231Z,102048.50
2019-06-08T22:40:10.894Z,102063.41
2019-06-08T22:42:41.795Z,102051.70
2019-06-08T22:45:11.422Z,102057.59
2019-06-08T22:47:40.696Z,102067.73
2019-06-08T22:50:10.275Z,102068.69
2019-06-08T22:52:40.128Z,102079.70
2019-06-08T22:55:11.172Z,102075.16
2019-06-08T22:57:40.464Z,102082.50
2019-06-08T23:00:16.617Z,102082.67
2019-06-08T23:02:42.380Z,102085.95
2019-06-08T23:05:13.152Z,102085.69
2019-06-08T23:07:42.597Z,102087.44
2019-06-08T23:10:17.367Z,102092.06
2019-06-08T23:12:48.186Z,102090.80
2019-06-08T23:15:18.348Z,102095.73
2019-06-08T23:17:49.576Z,102097.09
2019-06-08T23:20:20.691Z,102098.05
2019-06-08T23:22:49.991Z,102097.65
2019-06-08T23:25:19.111Z,102104.90
2019-06-08T23:27:48.504Z,102104.02
2019-06-08T23:30:19.410Z,102101.88
2019-06-08T23:32:48.793Z,102107.47
2019-06-08T23:35:20.046Z,102097.59
2019-06-08T23:37:50.718Z,102102.05
2019-06-08T23:40:20.278Z,102106.51
2019-06-08T23:42:49.516Z,102100.92
2019-06-08T23:45:20.182Z,102104.73
2019-06-08T23:47:49.420Z,102104.25
2019-06-08T23:50:18.927Z,102104.65
2019-06-08T23:52:48.105Z,102097.87
2019-06-08T23:55:20.270Z,102094.94
2019-06-08T23:57:49.452Z,102101.31
